createdAt,value
2022-08-22T00:00:16.942Z,5.77
2022-08-22T00:02:45.270Z,10.07
2022-08-22T00:02:48.679Z,6.67
2022-08-22T00:03:15.072Z,7.10
2022-08-22T00:05:45.215Z,12.00
2022-08-22T00:08:16.481Z,4.07
2022-08-22T00:10:51.346Z,5.60
2022-08-22T00:13:21.304Z,8.90
2022-08-22T00:15:51.809Z,4.67
2022-08-22T00:18:21.630Z,14.70
2022-08-22T00:20:51.830Z,5.97
2022-08-22T00:23:21.610Z,5.97
2022-08-22T00:25:51.453Z,6.03
2022-08-22T00:28:23.918Z,6.30
2022-08-22T00:30:56.840Z,8.47
2022-08-22T00:33:27.600Z,8.60
2022-08-22T00:36:03.458Z,6.37
2022-08-22T00:38:33.003Z,5.80
2022-08-22T00:41:02.235Z,7.10
2022-08-22T00:43:53.308Z,9.17
2022-08-22T00:46:27.911Z,7.13
2022-08-22T00:49:12.965Z,8.40
2022-08-22T00:51:58.079Z,5.77
2022-08-22T00:54:29.743Z,7.17
2022-08-22T00:57:04.170Z,3.40
2022-08-22T00:59:52.612Z,8.10
2022-08-22T01:02:32.884Z,9.03
2022-08-22T01:05:17.725Z,6.07
2022-08-22T01:07:52.798Z,4.00
2022-08-22T01:10:28.643Z,11.53
2022-08-22T01:13:03.911Z,6.97
2022-08-22T01:15:32.867Z,11.77
2022-08-22T01:18:18.675Z,13.97
2022-08-22T01:21:00.803Z,8.23
2022-08-22T01:23:46.747Z,7.20
2022-08-22T01:26:27.708Z,8.40
2022-08-22T01:29:16.172Z,9.43
2022-08-22T01:31:56.653Z,10.30
2022-08-22T01:34:41.930Z,13.57
2022-08-22T01:37:36.093Z,9.33
2022-08-22T01:40:25.629Z,6.77
2022-08-22T01:43:02.481Z,7.70
2022-08-22T01:45:42.529Z,7.30
2022-08-22T01:48:12.411Z,5.03
2022-08-22T01:50:43.448Z,6.30
2022-08-22T01:53:13.551Z,7.50
2022-08-22T01:55:42.077Z,7.93
2022-08-22T01:58:15.261Z,7.90
2022-08-22T02:00:55.355Z,7.27
2022-08-22T02:03:25.537Z,9.87
2022-08-22T02:06:01.866Z,8.20
2022-08-22T02:08:34.117Z,8.60
2022-08-22T02:11:04.193Z,7.53
2022-08-22T02:13:36.745Z,8.57
2022-08-22T02:16:10.645Z,9.80
2022-08-22T02:18:46.565Z,6.80
2022-08-22T02:21:17.567Z,6.20
2022-08-22T02:23:48.471Z,4.73
2022-08-22T02:26:16.853Z,7.93
2022-08-22T02:28:56.993Z,7.00
2022-08-22T02:31:33.349Z,6.63
2022-08-22T02:34:02.956Z,8.50
2022-08-22T02:36:33.143Z,8.10
2022-08-22T02:39:07.621Z,6.63
2022-08-22T02:41:37.827Z,8.50
2022-08-22T02:44:13.959Z,5.50
2022-08-22T02:46:44.824Z,5.83
2022-08-22T02:49:13.241Z,6.50
2022-08-22T02:51:47.129Z,10.13
2022-08-22T02:54:18.363Z,7.27
2022-08-22T02:56:50.201Z,9.80
2022-08-22T02:59:24.373Z,5.83
2022-08-22T03:01:51.943Z,7.30
2022-08-22T03:04:24.635Z,9.67
2022-08-22T03:07:05.086Z,11.03
2022-08-22T03:09:34.329Z,7.80
2022-08-22T03:12:05.019Z,8.47
2022-08-22T03:14:34.391Z,11.80
2022-08-22T03:17:03.176Z,8.57
2022-08-22T03:19:32.780Z,15.97
2022-08-22T03:22:03.028Z,6.50
2022-08-22T03:24:33.943Z,8.37
2022-08-22T03:27:04.146Z,11.57
2022-08-22T03:29:33.699Z,10.23
2022-08-22T03:32:06.293Z,14.70
2022-08-22T03:34:33.738Z,10.43
2022-08-22T03:37:05.242Z,9.60
2022-08-22T03:39:39.956Z,9.50
2022-08-22T03:42:15.451Z,9.40
2022-08-22T03:45:07.059Z,7.33
2022-08-22T03:47:49.264Z,6.00
2022-08-22T03:50:32.884Z,10.40
2022-08-22T03:53:15.439Z,11.60
2022-08-22T03:56:04.856Z,9.27
2022-08-22T03:58:45.997Z,13.20
2022-08-22T04:01:20.299Z,10.27
2022-08-22T04:04:08.346Z,14.83
2022-08-22T04:06:48.605Z,8.73
2022-08-22T04:09:40.387Z,13.83
2022-08-22T04:12:37.578Z,10.70
2022-08-22T04:15:16.401Z,8.47
2022-08-22T04:17:50.568Z,12.10
2022-08-22T04:20:23.654Z,10.80
2022-08-22T04:23:03.248Z,11.67
2022-08-22T04:25:34.561Z,7.97
2022-08-22T04:28:05.992Z,8.83
2022-08-22T04:30:38.242Z,10.80
2022-08-22T04:33:07.568Z,16.07
2022-08-22T04:35:35.808Z,12.23
2022-08-22T04:38:05.325Z,12.17
2022-08-22T04:40:36.817Z,7.83
2022-08-22T04:43:08.101Z,9.77
2022-08-22T04:45:38.202Z,11.80
2022-08-22T04:48:07.389Z,9.67
2022-08-22T04:50:41.242Z,19.60
2022-08-22T04:53:14.360Z,13.40
2022-08-22T04:55:46.907Z,12.07
2022-08-22T04:58:22.891Z,13.53
2022-08-22T05:00:54.872Z,8.53
2022-08-22T05:03:24.815Z,13.57
2022-08-22T05:05:54.545Z,10.93
2022-08-22T05:08:25.179Z,8.03
2022-08-22T05:10:52.736Z,11.77
2022-08-22T05:13:21.960Z,14.10
2022-08-22T05:15:50.463Z,9.30
2022-08-22T05:18:29.953Z,12.47
2022-08-22T05:20:59.583Z,12.30
2022-08-22T05:23:27.937Z,8.00
2022-08-22T05:25:59.295Z,9.30
2022-08-22T05:28:30.583Z,14.10
2022-08-22T05:30:58.064Z,9.90
2022-08-22T05:33:28.459Z,11.83
2022-08-22T05:35:58.704Z,8.93
2022-08-22T05:38:29.605Z,11.70
2022-08-22T05:41:09.297Z,14.70
2022-08-22T05:43:38.159Z,17.73
2022-08-22T05:46:09.883Z,12.77
2022-08-22T05:48:42.682Z,13.67
2022-08-22T05:51:16.128Z,15.70
2022-08-22T05:53:45.150Z,13.67
2022-08-22T05:56:14.346Z,11.37
2022-08-22T05:58:52.251Z,22.60
2022-08-22T06:01:25.485Z,13.60
2022-08-22T06:03:57.332Z,12.37
2022-08-22T06:06:26.799Z,16.33
2022-08-22T06:08:58.626Z,11.57
2022-08-22T06:11:32.771Z,11.17
2022-08-22T06:14:07.309Z,12.60
2022-08-22T06:16:39.570Z,12.63
2022-08-22T06:19:19.676Z,9.63
2022-08-22T06:21:48.739Z,12.93
2022-08-22T06:24:18.486Z,9.00
2022-08-22T06:26:48.922Z,11.00
2022-08-22T06:29:18.126Z,8.73
2022-08-22T06:31:46.510Z,13.30
2022-08-22T06:34:16.091Z,10.67
2022-08-22T06:36:46.301Z,15.00
2022-08-22T06:39:17.809Z,14.27
2022-08-22T06:41:47.770Z,8.83
2022-08-22T06:44:16.534Z,12.00
2022-08-22T06:46:44.536Z,15.07
2022-08-22T06:49:12.319Z,17.57
2022-08-22T06:51:39.776Z,13.83
2022-08-22T06:54:12.135Z,12.07
2022-08-22T06:56:41.055Z,14.83
2022-08-22T06:59:09.653Z,22.13
2022-08-22T07:01:51.115Z,25.67
2022-08-22T07:04:21.981Z,22.77
2022-08-22T07:06:51.825Z,20.23
2022-08-22T07:09:22.692Z,14.90
2022-08-22T07:11:50.558Z,24.23
2022-08-22T07:14:18.802Z,20.33
2022-08-22T07:16:47.693Z,19.93
2022-08-22T07:19:23.195Z,11.87
2022-08-22T07:21:50.396Z,10.60
2022-08-22T07:24:19.695Z,15.60
2022-08-22T07:26:52.326Z,9.50
2022-08-22T07:29:26.473Z,8.87
2022-08-22T07:31:56.679Z,17.20
2022-08-22T07:34:30.110Z,13.40
2022-08-22T07:36:59.395Z,10.20
2022-08-22T07:39:29.938Z,9.60
2022-08-22T07:42:05.067Z,7.60
2022-08-22T07:44:33.814Z,9.83
2022-08-22T07:47:02.680Z,12.37
2022-08-22T07:49:32.664Z,9.50
2022-08-22T07:52:01.072Z,9.45
2022-08-22T07:54:33.649Z,5.60
2022-08-22T07:57:03.796Z,8.50
2022-08-22T07:59:36.345Z,8.80
2022-08-22T08:02:06.475Z,14.18
2022-08-22T08:04:40.024Z,10.57
2022-08-22T08:07:08.904Z,6.50
2022-08-22T08:09:39.446Z,9.07
2022-08-22T08:12:07.765Z,8.25
2022-08-22T08:14:39.904Z,7.93
2022-08-22T08:17:08.463Z,6.57
2022-08-22T08:19:39.081Z,13.45
2022-08-22T08:22:06.635Z,10.05
2022-08-22T08:24:40.632Z,7.45
2022-08-22T08:27:13.501Z,5.47
2022-08-22T08:29:44.178Z,5.93
2022-08-22T08:32:11.650Z,6.60
2022-08-22T08:34:39.510Z,4.57
2022-08-22T08:37:12.691Z,8.00
2022-08-22T08:39:43.520Z,3.50
2022-08-22T08:42:25.955Z,6.18
2022-08-22T08:45:18.468Z,4.95
2022-08-22T08:47:51.245Z,4.35
2022-08-22T08:50:24.770Z,5.10
2022-08-22T08:53:06.835Z,6.82
2022-08-22T08:55:41.801Z,11.35
2022-08-22T08:58:21.329Z,2.83
2022-08-22T09:00:55.911Z,7.70
2022-08-22T09:03:31.987Z,5.28
2022-08-22T09:06:16.819Z,5.13
2022-08-22T09:08:57.813Z,4.43
2022-08-22T09:11:43.458Z,3.67
2022-08-22T09:14:16.747Z,2.53
2022-08-22T09:16:55.879Z,4.45
2022-08-22T09:19:32.615Z,7.18
2022-08-22T09:22:15.041Z,3.10
2022-08-22T09:24:57.128Z,7.65
2022-08-22T09:27:32.578Z,4.45
2022-08-22T09:30:04.701Z,3.25
2022-08-22T09:32:40.605Z,4.32
2022-08-22T09:35:13.121Z,3.35
2022-08-22T09:37:45.528Z,5.70
2022-08-22T09:40:18.811Z,8.57
2022-08-22T09:42:54.768Z,3.90
2022-08-22T09:45:34.726Z,3.42
2022-08-22T09:48:07.795Z,2.40
2022-08-22T09:50:42.592Z,3.97
2022-08-22T09:53:12.705Z,3.25
2022-08-22T09:55:43.178Z,5.13
2022-08-22T09:58:15.373Z,2.65
2022-08-22T10:00:45.980Z,4.88
2022-08-22T10:03:17.781Z,2.97
2022-08-22T10:05:46.057Z,6.65
2022-08-22T10:08:19.699Z,3.30
2022-08-22T10:11:14.278Z,4.15
2022-08-22T10:13:48.612Z,5.18
2022-08-22T10:16:35.268Z,2.95
2022-08-22T10:19:09.143Z,4.70
2022-08-22T10:21:39.676Z,4.60
2022-08-22T10:24:25.478Z,3.53
2022-08-22T10:26:54.383Z,2.95
2022-08-22T10:29:48.335Z,8.20
2022-08-22T10:32:21.200Z,4.32
2022-08-22T10:34:57.241Z,3.95
2022-08-22T10:37:28.154Z,3.55
2022-08-22T10:40:00.608Z,6.55
2022-08-22T10:42:35.464Z,3.28
2022-08-22T10:45:23.672Z,3.40
2022-08-22T10:48:26.038Z,5.82
2022-08-22T10:50:57.959Z,3.50
2022-08-22T10:53:29.705Z,4.40
2022-08-22T10:55:58.910Z,3.50
2022-08-22T10:58:27.396Z,2.97
2022-08-22T11:00:55.531Z,5.90
2022-08-22T11:03:25.521Z,3.63
2022-08-22T11:05:53.831Z,7.82
2022-08-22T11:08:39.482Z,4.97
2022-08-22T11:11:09.162Z,4.05
2022-08-22T11:13:42.253Z,3.47
2022-08-22T11:16:16.710Z,4.30
2022-08-22T11:19:02.669Z,3.33
2022-08-22T11:21:36.204Z,4.03
2022-08-22T11:24:08.956Z,2.83
2022-08-22T11:26:47.816Z,4.03
2022-08-22T11:29:33.555Z,4.80
2022-08-22T11:32:05.847Z,5.30
2022-08-22T11:34:42.355Z,5.22
2022-08-22T11:37:16.741Z,4.80
2022-08-22T11:39:52.446Z,6.75
2022-08-22T11:42:22.153Z,3.78
2022-08-22T11:44:53.617Z,3.20
2022-08-22T11:47:26.486Z,2.30
2022-08-22T11:49:58.880Z,3.17
2022-08-22T11:52:30.377Z,4.35
2022-08-22T11:55:08.620Z,4.75
2022-08-22T11:57:38.616Z,8.75
2022-08-22T12:00:29.954Z,5.88
2022-08-22T12:03:15.944Z,9.35
2022-08-22T12:05:45.136Z,2.92
2022-08-22T12:08:14.300Z,3.42
2022-08-22T12:10:54.855Z,7.35
2022-08-22T12:13:34.907Z,4.45
2022-08-22T12:16:08.126Z,8.15
2022-08-22T12:18:52.891Z,2.65
2022-08-22T12:21:27.300Z,5.15
2022-08-22T12:24:19.393Z,4.07
2022-08-22T12:26:57.337Z,5.50
2022-08-22T12:29:33.901Z,3.65
2022-08-22T12:32:27.855Z,5.78
2022-08-22T12:34:59.409Z,3.85
2022-08-22T12:37:29.624Z,5.57
2022-08-22T12:40:13.366Z,4.93
2022-08-22T12:43:04.633Z,4.35
2022-08-22T12:45:40.754Z,3.35
2022-08-22T12:48:15.879Z,5.20
2022-08-22T12:50:47.139Z,3.28
2022-08-22T12:53:28.339Z,3.80
2022-08-22T12:56:07.058Z,4.28
2022-08-22T12:58:55.367Z,3.83
2022-08-22T13:01:34.293Z,3.78
2022-08-22T13:04:03.421Z,4.85
2022-08-22T13:06:52.232Z,4.97
2022-08-22T13:09:34.181Z,5.18
2022-08-22T13:12:05.300Z,4.22
2022-08-22T13:14:33.844Z,6.28
2022-08-22T13:17:23.935Z,5.03
2022-08-22T13:19:56.363Z,5.97
2022-08-22T13:22:26.025Z,4.45
2022-08-22T13:24:57.494Z,6.22
2022-08-22T13:27:29.839Z,3.80
2022-08-22T13:29:59.305Z,3.42
2022-08-22T13:32:29.831Z,6.40
2022-08-22T13:34:58.020Z,6.28
2022-08-22T13:37:29.276Z,6.03
2022-08-22T13:39:59.340Z,4.72
2022-08-22T13:42:30.779Z,6.28
2022-08-22T13:45:00.103Z,6.50
2022-08-22T13:47:34.527Z,6.07
2022-08-22T13:50:08.215Z,4.40
2022-08-22T13:52:38.448Z,5.97
2022-08-22T13:55:12.552Z,6.90
2022-08-22T13:57:42.705Z,3.00
2022-08-22T14:00:12.939Z,3.97
2022-08-22T14:03:00.301Z,11.07
2022-08-22T14:05:30.856Z,3.97
2022-08-22T14:08:04.936Z,5.40
2022-08-22T14:10:41.476Z,5.57
2022-08-22T14:13:27.714Z,5.28
2022-08-22T14:15:59.186Z,5.35
2022-08-22T14:18:31.553Z,2.95
2022-08-22T14:21:19.708Z,4.50
2022-08-22T14:23:46.989Z,4.60
2022-08-22T14:26:23.031Z,3.53
2022-08-22T14:29:01.828Z,5.38
2022-08-22T14:31:29.561Z,3.67
2022-08-22T14:33:59.503Z,7.28
2022-08-22T14:36:29.357Z,5.72
2022-08-22T14:38:58.395Z,4.15
2022-08-22T14:41:52.986Z,6.10
2022-08-22T14:44:20.070Z,3.65
2022-08-22T14:46:50.726Z,5.30
2022-08-22T14:49:26.014Z,6.85
2022-08-22T14:51:58.636Z,5.47
2022-08-22T14:54:29.222Z,4.95
2022-08-22T14:56:57.489Z,3.35
2022-08-22T14:59:32.947Z,3.42
2022-08-22T15:02:01.803Z,5.78
2022-08-22T15:04:35.940Z,4.97
2022-08-22T15:07:03.227Z,4.93
2022-08-22T15:09:32.913Z,4.47
2022-08-22T15:12:01.565Z,4.05
2022-08-22T15:14:30.887Z,3.70
2022-08-22T15:16:59.230Z,3.60
2022-08-22T15:19:27.901Z,3.28
2022-08-22T15:22:13.608Z,5.63
2022-08-22T15:24:42.782Z,3.95
2022-08-22T15:27:10.449Z,3.28
2022-08-22T15:29:52.402Z,8.48
2022-08-22T15:32:23.276Z,4.93
2022-08-22T15:34:54.288Z,5.05
2022-08-22T15:37:29.746Z,4.30
2022-08-22T15:40:10.188Z,3.10
2022-08-22T15:42:40.922Z,4.68
2022-08-22T15:45:19.153Z,4.03
2022-08-22T15:47:50.135Z,9.48
2022-08-22T15:50:29.782Z,4.82
2022-08-22T15:53:11.515Z,5.97
2022-08-22T15:55:38.668Z,4.85
2022-08-22T15:58:10.059Z,7.25
2022-08-22T16:00:45.197Z,5.25
2022-08-22T16:03:15.314Z,3.40
2022-08-22T16:05:51.882Z,4.00
2022-08-22T16:08:26.087Z,4.63
2022-08-22T16:10:56.273Z,6.17
2022-08-22T16:13:41.637Z,5.73
2022-08-22T16:16:10.423Z,4.27
2022-08-22T16:18:56.472Z,4.70
2022-08-22T16:21:38.503Z,3.50
2022-08-22T16:24:24.541Z,5.90
2022-08-22T16:26:53.469Z,4.73
2022-08-22T16:29:29.546Z,9.10
2022-08-22T16:31:58.190Z,6.13
2022-08-22T16:34:27.568Z,5.90
2022-08-22T16:37:09.582Z,5.60
2022-08-22T16:39:39.484Z,3.70
2022-08-22T16:42:25.356Z,4.83
2022-08-22T16:44:55.746Z,4.03
2022-08-22T16:47:24.163Z,5.10
2022-08-22T16:50:00.479Z,5.00
2022-08-22T16:53:00.860Z,6.33
2022-08-22T16:55:58.119Z,4.50
2022-08-22T16:58:55.894Z,4.87
2022-08-22T17:01:28.290Z,8.03
2022-08-22T17:03:58.479Z,3.90
2022-08-22T17:06:34.548Z,3.77
2022-08-22T17:09:09.097Z,4.70
2022-08-22T17:11:41.137Z,5.77
2022-08-22T17:14:17.221Z,3.97
2022-08-22T17:16:54.106Z,4.67
2022-08-22T17:19:31.652Z,5.43
2022-08-22T17:22:01.807Z,6.20
2022-08-22T17:24:34.393Z,5.50
2022-08-22T17:27:07.077Z,7.63
2022-08-22T17:29:54.897Z,5.00
2022-08-22T17:32:26.489Z,6.80
2022-08-22T17:34:58.607Z,6.20
2022-08-22T17:37:32.110Z,5.00
2022-08-22T17:40:07.437Z,4.90
2022-08-22T17:42:41.644Z,6.87
2022-08-22T17:45:13.483Z,5.67
2022-08-22T17:47:44.670Z,4.30
2022-08-22T17:50:14.136Z,9.83
2022-08-22T17:52:44.788Z,7.40
2022-08-22T17:55:14.623Z,5.93
2022-08-22T17:57:47.629Z,6.37
2022-08-22T18:00:17.320Z,4.23
2022-08-22T18:02:50.799Z,7.00
2022-08-22T18:05:19.429Z,5.57
2022-08-22T18:07:49.793Z,4.77
2022-08-22T18:10:21.621Z,6.67
2022-08-22T18:12:53.009Z,7.67
2022-08-22T18:15:23.598Z,7.30
2022-08-22T18:17:54.737Z,9.03
2022-08-22T18:20:25.062Z,7.23
2022-08-22T18:22:54.792Z,5.20
2022-08-22T18:25:32.097Z,3.80
2022-08-22T18:28:03.415Z,8.53
2022-08-22T18:30:33.749Z,5.50
2022-08-22T18:33:08.427Z,6.80
2022-08-22T18:35:41.593Z,5.10
2022-08-22T18:38:20.021Z,3.47
2022-08-22T18:40:50.137Z,4.23
2022-08-22T18:43:18.545Z,5.67
2022-08-22T18:46:03.946Z,8.43
2022-08-22T18:48:59.529Z,6.90
2022-08-22T18:51:30.182Z,5.73
2022-08-22T18:54:01.737Z,8.40
2022-08-22T18:56:38.729Z,4.00
2022-08-22T18:59:12.652Z,7.50
2022-08-22T19:01:46.936Z,5.20
2022-08-22T19:04:24.502Z,5.83
2022-08-22T19:07:00.559Z,5.77
2022-08-22T19:09:41.925Z,11.63
2022-08-22T19:12:16.416Z,6.40
2022-08-22T19:14:52.885Z,5.93
2022-08-22T19:17:28.282Z,4.47
2022-08-22T19:20:00.024Z,5.97
2022-08-22T19:22:28.446Z,6.70
2022-08-22T19:25:03.430Z,9.43
2022-08-22T19:27:31.581Z,15.20
2022-08-22T19:30:00.780Z,8.70
2022-08-22T19:32:46.417Z,10.00
2022-08-22T19:35:18.838Z,11.97
2022-08-22T19:37:53.079Z,10.60
2022-08-22T19:40:35.111Z,15.33
2022-08-22T19:43:16.887Z,14.00
2022-08-22T19:45:44.035Z,8.73
2022-08-22T19:48:15.137Z,15.63
2022-08-22T19:50:43.725Z,16.63
2022-08-22T19:53:17.693Z,10.67
2022-08-22T19:55:53.143Z,9.23
2022-08-22T19:58:31.039Z,17.50
2022-08-22T20:01:03.023Z,12.60
2022-08-22T20:03:41.206Z,9.33
2022-08-22T20:06:33.556Z,6.63
2022-08-22T20:09:06.957Z,7.43
2022-08-22T20:11:39.137Z,7.30
2022-08-22T20:14:18.583Z,5.30
2022-08-22T20:16:59.760Z,6.23
2022-08-22T20:19:36.662Z,5.03
2022-08-22T20:22:06.200Z,4.83
2022-08-22T20:24:39.759Z,9.33
2022-08-22T20:27:14.439Z,9.30
2022-08-22T20:29:48.922Z,10.73
2022-08-22T20:32:17.776Z,4.13
2022-08-22T20:34:45.914Z,7.60
2022-08-22T20:37:35.558Z,7.00
2022-08-22T20:40:51.802Z,7.53
2022-08-22T20:43:10.549Z,10.67
2022-08-22T20:45:41.250Z,9.07
2022-08-22T20:48:09.382Z,10.33
2022-08-22T20:50:36.781Z,3.77
2022-08-22T20:53:12.024Z,9.70
2022-08-22T20:55:39.161Z,7.93
2022-08-22T20:58:07.135Z,9.10
2022-08-22T21:00:36.558Z,7.83
2022-08-22T21:03:07.597Z,8.70
2022-08-22T21:05:37.436Z,6.50
2022-08-22T21:08:05.974Z,11.83
2022-08-22T21:10:35.643Z,7.17
2022-08-22T21:13:05.155Z,7.47
2022-08-22T21:15:33.039Z,5.73
2022-08-22T21:18:00.397Z,6.77
2022-08-22T21:20:30.793Z,5.73
2022-08-22T21:23:00.862Z,6.87
2022-08-22T21:25:28.101Z,6.80
2022-08-22T21:27:56.700Z,7.93
2022-08-22T21:30:25.409Z,5.00
2022-08-22T21:32:55.912Z,13.53
2022-08-22T21:35:25.668Z,7.80
2022-08-22T21:37:53.089Z,6.53
2022-08-22T21:40:22.789Z,7.27
2022-08-22T21:43:01.077Z,9.83
2022-08-22T21:45:29.288Z,4.90
2022-08-22T21:47:56.678Z,8.30
2022-08-22T21:50:29.104Z,7.73
2022-08-22T21:53:10.088Z,6.00
2022-08-22T21:55:38.649Z,8.27
2022-08-22T21:58:09.339Z,5.87
2022-08-22T22:00:41.498Z,6.90
2022-08-22T22:03:16.978Z,7.93
2022-08-22T22:05:44.419Z,6.07
2022-08-22T22:08:12.079Z,7.00
2022-08-22T22:10:40.533Z,5.97
2022-08-22T22:13:09.060Z,6.77
2022-08-22T22:15:37.237Z,11.17
2022-08-22T22:18:05.478Z,5.27
2022-08-22T22:20:32.643Z,5.83
2022-08-22T22:22:59.857Z,5.33
2022-08-22T22:25:40.447Z,8.93
2022-08-22T22:28:11.815Z,6.77
2022-08-22T22:30:39.138Z,6.10
2022-08-22T22:33:06.294Z,8.07
2022-08-22T22:35:33.897Z,6.30
2022-08-22T22:38:01.152Z,8.23
2022-08-22T22:40:28.714Z,8.60
2022-08-22T22:42:55.893Z,7.40
2022-08-22T22:45:24.389Z,7.37
2022-08-22T22:47:51.535Z,10.93
2022-08-22T22:50:18.815Z,5.93
2022-08-22T22:52:45.953Z,7.40
2022-08-22T22:55:13.073Z,6.13
2022-08-22T22:57:58.560Z,9.53
2022-08-22T23:00:30.652Z,5.87
2022-08-22T23:02:58.565Z,8.47
2022-08-22T23:05:25.693Z,6.70
2022-08-22T23:07:52.833Z,8.43
2022-08-22T23:10:22.077Z,8.93
2022-08-22T23:12:49.691Z,6.03
2022-08-22T23:15:16.924Z,7.30
2022-08-22T23:17:45.527Z,8.90
2022-08-22T23:20:12.788Z,7.33
2022-08-22T23:22:39.991Z,7.93
2022-08-22T23:25:07.284Z,7.30
2022-08-22T23:27:34.411Z,9.30
2022-08-22T23:30:01.642Z,8.90
2022-08-22T23:32:28.874Z,7.83
2022-08-22T23:34:57.510Z,7.23
2022-08-22T23:37:24.637Z,7.07
2022-08-22T23:39:51.887Z,7.30
2022-08-22T23:42:19.085Z,6.07
2022-08-22T23:44:46.443Z,7.37
2022-08-22T23:47:14.116Z,14.23
2022-08-22T23:49:41.662Z,5.17
2022-08-22T23:52:12.143Z,7.10
2022-08-22T23:54:39.293Z,12.77
2022-08-22T23:57:11.612Z,7.20
2022-08-22T23:59:44.547Z,4.97
